Time;durP1;ratioP1;P1;durP2;ratioP2;P2;SDS_P1;SDS_P2;PMS_P1;PMS_P2;Temp;Humidity;BMP_temperature;BMP_pressure;BME280_temperature;BME280_humidity;BME280_pressure;Samples;Min_cycle;Max_cycle;Signal;HPM_P1;HPM_P2
2022/03/24 05:01:23;;;;;;;24.27;20.90;;;5.00;99.90;;;;;;5582067;23;20830;-64
2022/03/24 05:03:50;;;;;;;25.50;19.80;;;5.00;99.90;;;;;;5016147;28;20542;-64
2022/03/24 05:06:17;;;;;;;24.43;20.67;;;5.00;99.90;;;;;;5017178;28;20826;-64
2022/03/24 05:08:44;;;;;;;23.10;19.87;;;4.90;99.90;;;;;;5016235;28;20860;-64
2022/03/24 05:11:11;;;;;;;26.50;21.43;;;5.00;99.90;;;;;;5016166;28;20527;-65
2022/03/24 05:13:38;;;;;;;25.10;20.00;;;5.00;99.90;;;;;;5016248;28;20460;-63
2022/03/24 05:16:05;;;;;;;23.53;20.33;;;5.00;99.90;;;;;;5015866;28;20453;-64
2022/03/24 05:18:33;;;;;;;24.67;19.80;;;5.00;99.90;;;;;;5015911;28;20486;-64
2022/03/24 05:21:00;;;;;;;23.53;20.93;;;5.00;99.90;;;;;;5018041;28;20473;-63
2022/03/24 05:23:27;;;;;;;23.97;20.27;;;5.00;99.90;;;;;;5018891;28;20457;-64
2022/03/24 05:25:54;;;;;;;25.77;19.97;;;5.00;99.90;;;;;;5016034;28;20467;-64
2022/03/24 05:28:21;;;;;;;21.87;19.50;;;5.00;99.90;;;;;;5015871;28;20959;-64
2022/03/24 05:30:48;;;;;;;23.10;20.70;;;5.10;99.90;;;;;;5015940;28;20476;-63
2022/03/24 05:33:15;;;;;;;22.47;20.00;;;5.10;99.90;;;;;;5015508;28;20946;-64
2022/03/24 05:35:44;;;;;;;27.67;22.20;;;5.10;99.90;;;;;;5015738;28;20511;-64
2022/03/24 05:38:11;;;;;;;26.13;20.30;;;5.10;99.90;;;;;;5015767;28;20495;-65
2022/03/24 05:40:37;;;;;;;25.47;21.03;;;5.10;99.90;;;;;;5015685;28;20872;-63
2022/03/24 05:43:04;;;;;;;25.37;21.40;;;5.10;99.90;;;;;;5028541;28;20453;-64
2022/03/24 05:45:31;;;;;;;23.27;19.63;;;5.00;99.90;;;;;;5023484;28;20456;-64
2022/03/24 05:47:57;;;;;;;27.10;21.70;;;5.00;99.90;;;;;;5018636;28;20923;-64
2022/03/24 05:50:24;;;;;;;24.43;21.70;;;4.90;99.90;;;;;;5017374;28;20903;-64
2022/03/24 05:52:53;;;;;;;25.37;20.33;;;4.80;99.90;;;;;;5016829;28;20496;-63
2022/03/24 05:55:19;;;;;;;22.93;20.47;;;4.80;99.90;;;;;;5016586;28;20464;-63
2022/03/24 05:57:46;;;;;;;22.47;20.13;;;4.80;99.90;;;;;;5016449;28;20461;-64
2022/03/24 06:00:14;;;;;;;23.00;20.53;;;4.80;99.90;;;;;;5015100;28;20487;-64
2022/03/24 06:02:41;;;;;;;24.92;21.55;;;4.90;99.90;;;;;;5014529;28;20938;-65
2022/03/24 06:05:11;;;;;;;27.20;20.77;;;4.90;99.90;;;;;;5015302;28;20198;-64
2022/03/24 06:07:38;;;;;;;26.00;21.67;;;5.00;99.90;;;;;;5015319;28;20511;-64
2022/03/24 06:10:07;;;;;;;23.67;20.90;;;5.00;99.90;;;;;;5015135;28;20445;-64
2022/03/24 06:12:35;;;;;;;27.90;21.63;;;5.00;99.90;;;;;;5015191;28;20464;-64
2022/03/24 06:15:02;;;;;;;26.33;19.50;;;5.00;99.90;;;;;;5015123;28;20460;-64
2022/03/24 06:17:29;;;;;;;27.53;21.33;;;5.00;99.90;;;;;;5015423;28;20542;-64
2022/03/24 06:19:56;;;;;;;25.30;20.87;;;5.00;99.90;;;;;;5014947;28;20484;-64
2022/03/24 06:22:22;;;;;;;23.87;19.17;;;5.10;99.90;;;;;;5014719;28;20480;-64
2022/03/24 06:24:49;;;;;;;23.57;20.00;;;5.20;99.90;;;;;;5014598;28;20460;-63
2022/03/24 06:27:18;;;;;;;24.73;19.60;;;5.50;99.90;;;;;;5014875;28;20481;-63
2022/03/24 06:29:45;;;;;;;22.13;19.73;;;5.90;99.90;;;;;;5014845;28;20453;-63
2022/03/24 06:32:13;;;;;;;24.07;20.00;;;6.50;99.90;;;;;;5014728;28;20480;-64
2022/03/24 06:34:39;;;;;;;29.80;19.23;;;7.10;98.70;;;;;;5016088;28;20899;-63
2022/03/24 06:37:07;;;;;;;22.73;20.30;;;7.60;97.20;;;;;;5015663;28;20511;-64
2022/03/24 06:39:34;;;;;;;22.60;20.23;;;8.20;94.80;;;;;;5016167;28;20477;-63
2022/03/24 06:42:01;;;;;;;21.53;17.13;;;8.70;93.80;;;;;;5013840;28;20842;-63
2022/03/24 06:44:30;;;;;;;23.97;18.60;;;9.30;92.00;;;;;;5014607;28;20510;-64
2022/03/24 06:46:57;;;;;;;21.57;18.00;;;9.80;87.80;;;;;;5013957;28;20485;-63
2022/03/24 06:49:24;;;;;;;21.60;18.60;;;10.30;84.40;;;;;;5014233;28;20453;-63
2022/03/24 06:51:51;;;;;;;20.73;18.50;;;11.00;80.40;;;;;;5013895;28;20817;-63
2022/03/24 06:54:18;;;;;;;22.70;19.60;;;11.50;76.90;;;;;;5014221;28;20437;-63
2022/03/24 06:56:44;;;;;;;;;;;12.00;73.30;;;;;;5014067;28;20943;-63
2022/03/24 06:59:11;;;;;;;23.93;21.10;;;12.40;70.90;;;;;;5014825;28;20212;-63
2022/03/24 07:01:40;;;;;;;26.35;20.55;;;12.50;68.80;;;;;;5014545;28;20512;-64
2022/03/24 07:04:07;;;;;;;27.07;20.40;;;12.90;66.50;;;;;;5014624;28;20453;-63
2022/03/24 07:06:33;;;;;;;23.67;19.57;;;13.40;65.70;;;;;;5014935;28;20457;-63
2022/03/24 07:09:00;;;;;;;23.00;20.50;;;13.80;64.50;;;;;;5014350;28;20453;-63
2022/03/24 07:11:27;;;;;;;23.07;18.83;;;14.20;60.70;;;;;;5013720;28;20878;-63
2022/03/24 07:13:53;;;;;;;26.83;20.53;;;14.50;59.80;;;;;;5014231;28;20448;-63
2022/03/24 07:16:20;;;;;;;23.60;20.47;;;14.60;58.80;;;;;;5014076;28;20500;-62
2022/03/24 07:18:48;;;;;;;;;;;14.90;60.20;;;;;;5013966;28;20368;-62
2022/03/24 07:21:15;;;;;;;;;;;15.10;59.00;;;;;;5014283;28;19925;-63
2022/03/24 07:23:41;;;;;;;;;;;15.40;58.50;;;;;;5014326;28;19932;-63
2022/03/24 07:26:09;;;;;;;;;;;15.50;56.70;;;;;;5014381;28;19930;-63
2022/03/24 07:28:36;;;;;;;;;;;15.70;57.10;;;;;;5014246;28;20019;-64
2022/03/24 07:31:08;;;;;;;;;;;15.70;55.00;;;;;;5014206;28;19926;-64
2022/03/24 07:33:35;;;;;;;;;;;15.20;55.10;;;;;;5014136;28;19926;-62
2022/03/24 07:36:03;;;;;;;;;;;15.20;56.50;;;;;;5013880;28;19976;-63
2022/03/24 07:38:30;;;;;;;;;;;15.60;56.10;;;;;;5014206;28;19926;-65
2022/03/24 07:40:57;;;;;;;;;;;15.90;56.00;;;;;;5013719;28;19926;-65
2022/03/24 07:43:23;;;;;;;26.07;21.80;;;16.30;55.50;;;;;;5013728;28;20069;-63
2022/03/24 07:45:51;;;;;;;30.67;22.17;;;16.60;54.50;;;;;;5013705;28;20453;-62
2022/03/24 07:48:20;;;;;;;;;;;16.90;54.20;;;;;;5014192;28;20301;-63
2022/03/24 07:50:48;;;;;;;;;;;17.10;53.20;;;;;;5014055;28;19922;-63
2022/03/24 07:53:24;;;;;;;;;;;16.80;53.10;;;;;;5013801;28;20292;-63
2022/03/24 07:55:51;;;;;;;;;;;16.70;52.90;;;;;;5013935;28;19922;-64
2022/03/24 07:58:18;;;;;;;;;;;16.80;54.10;;;;;;5014037;28;19967;-63
2022/03/24 08:00:45;;;;;;;;;;;17.10;52.90;;;;;;5013531;28;19925;-63
2022/03/24 08:03:13;;;;;;;;;;;17.60;52.30;;;;;;5013807;28;19921;-63
2022/03/24 08:05:40;;;;;;;;;;;18.20;51.70;;;;;;5013870;28;19922;-64
2022/03/24 08:08:07;;;;;;;;;;;18.70;50.50;;;;;;5013425;28;19921;-64
2022/03/24 08:10:35;;;;;;;;;;;19.20;50.20;;;;;;5013758;28;19929;-64
2022/03/24 08:13:02;;;;;;;;;;;19.50;49.20;;;;;;5013906;28;19925;-63
2022/03/24 08:15:29;;;;;;;;;;;19.90;49.30;;;;;;5013472;28;19971;-63
2022/03/24 08:17:56;;;;;;;;;;;20.10;48.30;;;;;;5013605;28;20020;-63
2022/03/24 08:20:23;;;;;;;;;;;20.60;49.00;;;;;;5013402;28;19929;-63
2022/03/24 08:22:50;;;;;;;;;;;21.10;48.20;;;;;;5013582;28;20292;-63
2022/03/24 08:25:17;;;;;;;;;;;21.30;47.30;;;;;;5017008;28;19928;-64
2022/03/24 08:27:45;;;;;;;;;;;21.90;46.40;;;;;;5017062;28;19925;-62
2022/03/24 08:30:12;;;;;;;;;;;22.40;44.40;;;;;;5016938;28;19921;-63
2022/03/24 08:32:39;;;;;;;;;;;22.50;45.80;;;;;;5017619;28;19921;-63
2022/03/24 08:35:06;;;;;;;;;;;22.60;44.30;;;;;;5016630;28;20376;-63
2022/03/24 08:37:33;;;;;;;;;;;22.60;43.70;;;;;;5017028;28;19922;-63
2022/03/24 08:39:59;;;;;;;;;;;22.70;42.70;;;;;;5016896;28;19929;-64
2022/03/24 08:42:26;;;;;;;;;;;22.30;44.30;;;;;;5016853;28;19921;-64
2022/03/24 08:44:54;;;;;;;;;;;22.70;44.20;;;;;;5016316;28;20331;-64
2022/03/24 08:47:20;;;;;;;;;;;23.10;44.40;;;;;;5016416;28;19926;-63
2022/03/24 08:49:48;;;;;;;;;;;23.10;42.40;;;;;;5016629;28;19921;-63
2022/03/24 08:52:14;;;;;;;;;;;23.30;44.10;;;;;;5016441;28;19928;-64
2022/03/24 08:54:41;;;;;;;;;;;22.60;42.80;;;;;;5016483;28;19928;-64
2022/03/24 08:57:08;;;;;;;;;;;22.40;43.50;;;;;;5016322;28;19972;-64
2022/03/24 08:59:35;;;;;;;;;;;22.80;42.70;;;;;;5016368;28;19921;-64
2022/03/24 09:02:04;;;;;;;;;;;23.00;44.50;;;;;;5016510;28;20035;-62
2022/03/24 09:04:31;;;;;;;;;;;23.60;42.60;;;;;;5015954;28;19922;-63
2022/03/24 09:06:57;;;;;;;;;;;23.30;41.80;;;;;;5016140;28;19928;-63
2022/03/24 09:09:24;;;;;;;;;;;23.50;41.70;;;;;;5016084;28;19925;-64
2022/03/24 09:11:51;;;;;;;;;;;23.40;43.10;;;;;;5016166;28;19921;-64
2022/03/24 09:14:17;;;;;;;;;;;23.90;44.60;;;;;;5015760;28;20300;-64
2022/03/24 09:16:45;;;;;;;;;;;24.80;43.60;;;;;;5016048;28;19932;-64
2022/03/24 09:19:13;;;;;;;;;;;25.30;41.90;;;;;;5015910;28;19968;-64
2022/03/24 09:21:39;;;;;;;;;;;25.10;42.10;;;;;;5015994;28;19928;-64
2022/03/24 09:24:06;;;;;;;;;;;25.60;42.30;;;;;;5016559;28;19928;-64
2022/03/24 09:26:33;;;;;;;;;;;25.70;42.90;;;;;;5015652;28;19975;-64
2022/03/24 09:29:01;;;;;;;;;;;26.20;43.00;;;;;;5015669;28;19925;-64
2022/03/24 09:31:27;;;;;;;;;;;25.70;40.40;;;;;;5015546;28;19944;-64
2022/03/24 09:33:54;;;;;;;;;;;25.40;40.90;;;;;;5015769;28;19925;-64
2022/03/24 09:36:22;;;;;;;;;;;25.90;41.50;;;;;;5015622;28;19921;-64
2022/03/24 09:38:49;;;;;;;;;;;25.80;40.20;;;;;;5015528;28;19928;-64
2022/03/24 09:41:19;;;;;;;;;;;25.60;39.40;;;;;;5015141;28;19921;-64
2022/03/24 09:43:45;;;;;;;;;;;25.80;40.90;;;;;;5015340;28;19929;-64
2022/03/24 09:46:12;;;;;;;;;;;25.40;40.20;;;;;;5015282;28;19921;-64
2022/03/24 09:48:41;;;;;;;;;;;25.00;40.80;;;;;;5015224;28;20017;-64
2022/03/24 09:51:08;;;;;;;;;;;25.60;41.00;;;;;;5015222;28;19922;-64
2022/03/24 09:53:39;;;;;;;;;;;25.90;38.90;;;;;;5014905;28;19932;-64
2022/03/24 09:56:05;;;;;;;;;;;26.40;39.40;;;;;;5015287;28;20015;-64
2022/03/24 09:58:32;;;;;;;;;;;26.00;37.10;;;;;;5014766;28;20377;-64
2022/03/24 10:01:00;;;;;;;;;;;26.50;39.50;;;;;;5014573;28;20273;-64
2022/03/24 10:03:27;;;;;;;;;;;26.60;38.10;;;;;;5015184;28;19936;-64
2022/03/24 10:05:54;;;;;;;;;;;27.40;37.40;;;;;;5015009;28;20253;-64
2022/03/24 10:08:21;;;;;;;;;;;27.30;34.90;;;;;;5015039;28;19922;-64
2022/03/24 10:10:49;;;;;;;;;;;26.50;36.80;;;;;;5014991;28;19971;-64
2022/03/24 10:13:23;;;;;;;;;;;26.60;37.70;;;;;;5015077;28;19957;-64
2022/03/24 10:15:50;;;;;;;;;;;27.10;37.90;;;;;;5015136;28;20270;-63
2022/03/24 10:18:17;;;;;;;;;;;27.30;37.50;;;;;;5014893;28;20281;-63
2022/03/24 10:20:43;;;;;;;;;;;27.30;35.80;;;;;;5014776;28;19948;-64
2022/03/24 10:23:12;;;;;;;;;;;27.50;35.60;;;;;;5014330;28;19921;-64
2022/03/24 10:25:40;;;;;;;;;;;27.50;34.90;;;;;;5014465;28;20336;-64
2022/03/24 10:28:09;;;;;;;;;;;27.40;36.00;;;;;;5014719;28;19928;-64
2022/03/24 10:30:50;;;;;;;;;;;27.60;36.20;;;;;;5014816;28;19925;-64
2022/03/24 10:33:27;;;;;;;;;;;28.00;33.20;;;;;;5012033;28;19921;-64
2022/03/24 10:36:04;;;;;;;;;;;28.10;34.20;;;;;;5014694;28;19922;-64
2022/03/24 10:38:31;;;;;;;;;;;28.10;34.20;;;;;;5015757;28;20292;-64
2022/03/24 10:40:58;;;;;;;;;;;27.40;33.40;;;;;;5014868;28;20434;-64
2022/03/24 10:43:26;;;;;;;;;;;27.60;32.50;;;;;;5014036;28;19925;-64
2022/03/24 10:45:53;;;;;;;;;;;27.60;32.70;;;;;;5013985;28;19977;-64
2022/03/24 10:48:21;;;;;;;;;;;27.70;33.40;;;;;;5014178;28;19922;-64
2022/03/24 10:50:50;;;;;;;;;;;27.80;32.50;;;;;;5014207;28;19921;-64
2022/03/24 10:53:19;;;;;;;;;;;27.90;32.30;;;;;;5014204;28;19921;-64
2022/03/24 10:55:50;;;;;;;;;;;27.30;31.80;;;;;;5014144;28;20288;-64
2022/03/24 10:58:20;;;;;;;;;;;27.30;29.00;;;;;;5015366;28;19928;-63
2022/03/24 11:00:48;;;;;;;;;;;27.10;29.50;;;;;;5013726;28;19921;-64
2022/03/24 11:03:15;;;;;;;;;;;26.30;32.90;;;;;;5014093;28;20265;-63
2022/03/24 11:05:42;;;;;;;;;;;26.30;31.60;;;;;;5014199;28;19921;-64
2022/03/24 11:08:09;;;;;;;;;;;26.20;30.70;;;;;;5013983;28;19921;-64
2022/03/24 11:10:43;;;;;;;;;;;26.00;31.00;;;;;;5013917;28;19921;-63
2022/03/24 11:13:11;;;;;;;;;;;25.50;33.80;;;;;;5013650;28;19928;-64
2022/03/24 11:15:39;;;;;;;;;;;25.20;34.20;;;;;;5014862;28;19921;-64
2022/03/24 11:18:09;;;;;;;;;;;24.60;34.60;;;;;;5014084;28;19921;-64
2022/03/24 11:20:38;;;;;;;;;;;24.30;35.90;;;;;;5013681;28;20284;-64
2022/03/24 11:23:12;;;;;;;;;;;24.30;35.60;;;;;;5013994;28;20004;-63
2022/03/24 11:25:38;;;;;;;;;;;24.30;35.10;;;;;;5013682;28;19921;-63
2022/03/24 11:28:07;;;;;;;;;;;24.20;36.20;;;;;;5013871;28;19933;-63
2022/03/24 11:30:34;;;;;;;;;;;24.30;35.10;;;;;;5013741;28;19925;-65
2022/03/24 11:33:03;;;;;;;;;;;24.00;36.40;;;;;;5013921;28;19925;-65
2022/03/24 11:35:33;;;;;;;;;;;23.80;36.90;;;;;;5013579;28;20361;-65
2022/03/24 11:38:00;;;;;;;;;;;23.80;38.80;;;;;;5014035;28;19929;-65
2022/03/24 11:40:27;;;;;;;;;;;23.90;36.90;;;;;;5013610;28;19929;-65
2022/03/24 11:42:55;;;;;;;;;;;23.80;35.50;;;;;;5013607;28;20324;-64
2022/03/24 11:45:26;;;;;;;;;;;23.80;36.00;;;;;;5013903;28;20353;-65
2022/03/24 11:47:55;;;;;;;;;;;23.80;38.20;;;;;;5015188;28;20415;-65
2022/03/24 11:50:36;;;;;;;;;;;23.70;34.90;;;;;;5013645;28;20376;-64
2022/03/24 11:53:14;;;;;;;;;;;23.40;33.50;;;;;;5013587;28;19921;-65
2022/03/24 11:55:45;;;;;;;;;;;23.40;37.30;;;;;;5013983;28;19928;-65
2022/03/24 11:58:11;;;;;;;;;;;23.30;37.20;;;;;;5014521;28;20011;-65
2022/03/24 12:00:40;;;;;;;;;;;23.40;36.70;;;;;;5017270;28;20003;-65
2022/03/24 12:03:22;;;;;;;;;;;23.50;35.60;;;;;;5017550;28;19928;-65
2022/03/24 12:05:55;;;;;;;;;;;23.60;35.80;;;;;;5016468;28;19930;-65
2022/03/24 12:08:26;;;;;;;;;;;23.70;36.20;;;;;;5017582;28;19928;-64
2022/03/24 12:10:52;;;;;;;;;;;23.70;37.10;;;;;;5017203;28;20381;-65
2022/03/24 12:13:21;;;;;;;;;;;23.80;37.20;;;;;;5017380;28;19967;-65
2022/03/24 12:16:02;;;;;;;;;;;23.90;37.80;;;;;;5017275;28;19961;-65
2022/03/24 12:18:39;;;;;;;;;;;24.10;36.70;;;;;;5016793;28;19928;-65
2022/03/24 12:21:07;;;;;;;;;;;24.00;37.10;;;;;;5016947;28;19921;-65
2022/03/24 12:23:49;;;;;;;;;;;24.10;34.80;;;;;;5017246;28;19922;-65
2022/03/24 12:26:17;;;;;;;;;;;24.00;35.10;;;;;;5016671;28;20332;-65
2022/03/24 12:28:43;;;;;;;;;;;24.00;34.30;;;;;;5016969;28;19929;-65
2022/03/24 12:31:11;;;;;;;;;;;24.20;37.50;;;;;;5016578;28;19933;-65
2022/03/24 12:33:49;;;;;;;;;;;24.10;35.90;;;;;;5016884;28;19928;-64
2022/03/24 12:36:30;;;;;;;;;;;24.20;36.70;;;;;;5016607;28;19925;-65
2022/03/24 12:38:58;;;;;;;;;;;24.20;36.60;;;;;;5015771;28;19928;-65
2022/03/24 12:41:26;;;;;;;;;;;24.30;34.80;;;;;;5016621;28;20039;-65
2022/03/24 12:43:56;;;;;;;;;;;24.10;36.50;;;;;;5016732;28;19922;-65
2022/03/24 12:46:25;;;;;;;;;;;23.80;38.20;;;;;;5016171;28;20273;-64
2022/03/24 12:48:52;;;;;;;;;;;23.70;35.50;;;;;;5016479;28;19921;-65
2022/03/24 12:51:21;;;;;;;;;;;23.60;36.70;;;;;;5016490;28;19922;-64
2022/03/24 12:53:55;;;;;;;;;;;23.70;35.60;;;;;;5016673;28;19921;-65
2022/03/24 12:56:26;;;;;;;;;;;23.60;36.10;;;;;;5016633;28;20013;-65
2022/03/24 12:58:53;;;;;;;;;;;23.70;37.20;;;;;;5016226;28;19929;-65
2022/03/24 13:01:20;;;;;;;;;;;23.70;37.60;;;;;;5015967;28;19921;-65
2022/03/24 13:03:53;;;;;;;;;;;23.70;33.20;;;;;;5016437;28;19925;-64
2022/03/24 13:06:21;;;;;;;;;;;23.70;37.80;;;;;;5016399;28;19921;-65
2022/03/24 13:09:11;;;;;;;;;;;23.70;34.60;;;;;;5015714;28;20385;-65
2022/03/24 13:11:49;;;;;;;;;;;23.60;37.30;;;;;;5016198;28;20256;-65
2022/03/24 13:14:17;;;;;;;;;;;23.70;34.60;;;;;;5016089;28;19976;-65
2022/03/24 13:16:57;;;;;;;;;;;23.40;32.70;;;;;;5015987;28;19921;-65
2022/03/24 13:19:24;;;;;;;;;;;23.10;33.60;;;;;;5015727;28;19928;-64
2022/03/24 13:21:51;;;;;;;;;;;23.10;37.10;;;;;;5015839;28;19929;-65
2022/03/24 13:24:19;;;;;;;;;;;23.20;35.10;;;;;;5015790;28;20280;-65
2022/03/24 13:26:58;;;;;;;;;;;23.40;35.80;;;;;;5015767;28;19972;-65
2022/03/24 13:29:35;;;;;;;;;;;23.50;36.70;;;;;;5015622;28;19980;-65
2022/03/24 13:32:08;;;;;;;;;;;23.60;35.90;;;;;;5016435;28;19925;-65
2022/03/24 13:34:34;;;;;;;;;;;23.60;36.70;;;;;;5015725;28;19921;-64
2022/03/24 13:37:10;;;;;;;;;;;23.70;36.00;;;;;;5015796;28;19955;-65
2022/03/24 13:39:37;;;;;;;;;;;23.70;35.90;;;;;;5015593;28;19925;-65
2022/03/24 13:42:08;;;;;;;;;;;23.70;35.30;;;;;;5015472;28;19921;-65
2022/03/24 13:44:35;;;;;;;;;;;23.90;35.40;;;;;;5015692;28;19922;-65
2022/03/24 13:47:02;;;;;;;;;;;23.90;35.90;;;;;;5015777;28;19963;-65
2022/03/24 13:49:28;;;;;;;;;;;24.10;35.90;;;;;;5016202;28;20304;-65
2022/03/24 13:51:55;;;;;;;;;;;23.90;34.00;;;;;;5016241;28;19922;-64
2022/03/24 13:54:22;;;;;;;;;;;24.00;33.60;;;;;;5015545;28;19926;-66
2022/03/24 13:56:48;;;;;;;;;;;24.00;36.80;;;;;;5015380;28;19928;-65
2022/03/24 13:59:16;;;;;;;;;;;24.10;35.40;;;;;;5015466;28;19928;-65
2022/03/24 14:01:43;;;;;;;;;;;24.00;36.20;;;;;;5014803;28;19921;-65
2022/03/24 14:04:17;;;;;;;;;;;23.70;35.90;;;;;;5015437;28;19930;-65
2022/03/24 14:06:58;;;;;;;;;;;23.70;34.80;;;;;;5015425;28;19922;-65
2022/03/24 14:09:25;;;;;;;;;;;23.50;34.00;;;;;;5015097;28;19921;-65
2022/03/24 14:12:02;;;;;;;;;;;23.40;35.40;;;;;;5015199;28;20283;-66
2022/03/24 14:14:30;;;;;;;;;;;23.40;35.30;;;;;;5015326;28;19925;-65
2022/03/24 14:16:56;;;;;;;;;;;23.50;36.10;;;;;;5015349;28;19948;-65
2022/03/24 14:19:26;;;;;;;;;;;23.70;34.00;;;;;;5014789;28;19929;-64
2022/03/24 14:21:54;;;;;;;;;;;23.70;34.40;;;;;;5014226;28;19921;-64
2022/03/24 14:24:30;;;;;;;;;;;23.60;34.20;;;;;;5014745;28;20401;-64
2022/03/24 14:26:58;;;;;;;;;;;23.70;33.20;;;;;;5014848;28;19925;-64
2022/03/24 14:29:25;;;;;;;;;;;23.70;33.60;;;;;;5014990;28;20291;-64
2022/03/24 14:32:06;;;;;;;;;;;23.60;32.80;;;;;;5015068;28;19921;-67
2022/03/24 14:34:34;;;;;;;;;;;23.40;33.60;;;;;;5014970;28;19922;-64
2022/03/24 14:37:09;;;;;;;;;;;23.30;32.90;;;;;;5014918;28;19921;-64
2022/03/24 14:39:44;;;;;;;;;;;23.20;31.40;;;;;;5015167;28;19928;-64
2022/03/24 14:42:11;;;;;;;;;;;23.10;32.20;;;;;;5014851;28;19944;-64
2022/03/24 14:44:38;;;;;;;;;;;23.10;34.70;;;;;;5014961;28;19922;-64
2022/03/24 14:47:04;;;;;;;;;;;23.10;33.80;;;;;;5014298;28;20301;-64
2022/03/24 14:49:31;;;;;;;;;;;23.00;34.30;;;;;;5014557;28;19928;-64
2022/03/24 14:51:59;;;;;;;;;;;23.10;34.40;;;;;;5014554;28;19922;-64
2022/03/24 14:54:26;;;;;;;;;;;23.00;34.70;;;;;;5014534;28;19929;-64
2022/03/24 14:56:53;;;;;;;;;;;23.00;34.90;;;;;;5014644;28;19921;-65
2022/03/24 14:59:20;;;;;;;;;;;23.10;34.80;;;;;;5014501;28;19975;-64
2022/03/24 15:01:46;;;;;;;;;;;23.00;32.50;;;;;;5014116;28;20017;-64
2022/03/24 15:04:13;;;;;;;;;;;23.00;33.80;;;;;;5014428;28;19928;-64
2022/03/24 15:06:40;;;;;;;;;;;23.00;34.30;;;;;;5014396;28;19921;-64
2022/03/24 15:09:08;;;;;;;;;;;22.90;32.90;;;;;;5014648;28;19928;-65
2022/03/24 15:11:35;;;;;;;;;;;22.90;33.50;;;;;;5014267;28;19921;-64
2022/03/24 15:16:45;;;;;;;;;;;22.90;33.40;;;;;;5014318;28;20040;-64
2022/03/24 15:19:12;;;;;;;;;;;22.70;32.40;;;;;;5014344;28;19921;-64
2022/03/24 15:21:38;;;;;;;;;;;22.60;32.80;;;;;;5014315;28;19921;-64
2022/03/24 15:24:05;;;;;;;;;;;22.40;32.80;;;;;;5014294;28;19925;-64
2022/03/24 15:26:33;;;;;;;;;;;22.30;33.00;;;;;;5014363;28;19921;-64
2022/03/24 15:29:01;;;;;;;;;;;22.40;33.90;;;;;;5014231;28;20352;-64
2022/03/24 15:31:28;;;;;;;;;;;22.50;33.10;;;;;;5013908;28;20293;-64
2022/03/24 15:33:55;;;;;;;;;;;22.40;32.00;;;;;;5017759;28;19921;-64
2022/03/24 15:36:23;;;;;;;;;;;22.30;32.30;;;;;;5018215;28;19925;-64
2022/03/24 15:38:50;;;;;;;;;;;22.20;33.00;;;;;;5018240;28;19921;-64
2022/03/24 15:41:16;;;;;;;;;;;22.10;33.40;;;;;;5017880;28;19921;-64
2022/03/24 15:43:44;;;;;;;;;;;22.10;33.70;;;;;;5017733;28;20377;-64
2022/03/24 15:46:11;;;;;;;;;;;22.00;33.50;;;;;;5018021;28;20292;-64
2022/03/24 15:48:39;;;;;;;;;;;21.90;32.60;;;;;;5018004;28;19929;-64
2022/03/24 15:51:05;;;;;;;;;;;21.70;32.70;;;;;;5017911;28;19922;-63
2022/03/24 15:53:32;;;;;;;;;;;21.50;31.70;;;;;;5017841;28;19967;-64
2022/03/24 15:55:58;;;;;;;;;;;21.30;32.20;;;;;;5018021;28;19929;-64
2022/03/24 15:58:25;;;;;;;;;;;21.30;33.00;;;;;;5018413;28;19922;-64
2022/03/24 16:00:53;;;;;;;;;;;21.20;32.20;;;;;;5018714;28;20337;-64
2022/03/24 16:03:20;;;;;;;;;;;21.20;31.90;;;;;;5018907;28;19928;-63
2022/03/24 16:05:46;;;;;;;;;;;21.10;32.50;;;;;;5019072;28;19921;-65
2022/03/24 16:08:13;;;;;;;;;;;21.10;31.50;;;;;;5018970;28;19925;-64
2022/03/24 16:10:39;;;;;;;;;;;21.00;31.80;;;;;;5019167;28;19928;-65
2022/03/24 16:13:07;;;;;;;;;;;20.90;32.70;;;;;;5019025;28;19925;-65
2022/03/24 16:15:34;;;;;;;;;;;20.70;32.70;;;;;;5019525;28;19922;-65
2022/03/24 16:18:03;;;;;;;;;;;20.60;32.70;;;;;;5019081;28;19929;-65
2022/03/24 16:20:29;;;;;;;;;;;20.50;33.20;;;;;;5019031;28;19921;-65
2022/03/24 16:22:59;;;;;;;;;;;20.40;33.20;;;;;;5020263;28;20024;-65
2022/03/24 16:25:26;;;;;;;;;;;20.30;32.00;;;;;;5019395;28;19921;-65
2022/03/24 16:27:53;;;;;;;;;;;20.20;33.70;;;;;;5020697;28;19929;-65
2022/03/24 16:30:19;;;;;;;;;;;20.10;33.20;;;;;;5019119;28;19922;-65
2022/03/24 16:32:46;;;;;;;;;;;20.10;33.10;;;;;;5019819;28;19921;-65
2022/03/24 16:35:14;;;;;;;;;;;20.00;33.30;;;;;;5019994;28;19928;-65
2022/03/24 16:37:40;;;;;;;;;;;19.90;33.10;;;;;;5019330;28;19941;-65
2022/03/24 16:40:09;;;;;;;;;;;19.70;33.00;;;;;;5019073;28;19926;-64
2022/03/24 16:42:35;;;;;;;;;;;19.70;33.20;;;;;;5018116;28;19921;-65
2022/03/24 16:45:02;;;;;;;;;;;19.60;34.70;;;;;;5017194;28;19921;-65
2022/03/24 16:47:28;;;;;;;;;;;19.50;33.70;;;;;;5018519;28;20257;-65
2022/03/24 16:49:55;;;;;;;;;;;19.50;34.30;;;;;;5019813;28;19944;-64
2022/03/24 16:52:23;;;;;;;;;;;19.40;35.20;;;;;;5019895;28;20328;-64
2022/03/24 16:54:49;;;;;;;;;;;19.40;34.80;;;;;;5021533;28;19922;-64
2022/03/24 16:57:16;;;;;;;;;;;19.30;35.30;;;;;;5022469;28;19928;-64
2022/03/24 16:59:42;;;;;;;;;;;19.20;34.50;;;;;;5022258;28;19964;-64
2022/03/24 17:02:10;;;;;;;;;;;19.20;34.20;;;;;;5021017;28;19925;-63
2022/03/24 17:04:37;;;;;;;;;;;19.10;35.30;;;;;;5020040;28;20025;-65
2022/03/24 17:07:06;;;;;;;;;;;19.00;34.90;;;;;;5019910;28;20392;-64
2022/03/24 17:09:34;;;;;;;;;;;18.90;35.70;;;;;;5022142;28;19921;-65
2022/03/24 17:12:01;;;;;;;;;;;18.80;35.90;;;;;;5021658;28;20276;-64
2022/03/24 17:14:28;;;;;;;;;;;18.70;35.80;;;;;;5021339;28;19926;-65
2022/03/24 17:16:54;;;;;;;;;;;18.60;36.10;;;;;;5020782;28;19921;-64
2022/03/24 17:19:21;;;;;;;;;;;18.50;35.80;;;;;;5016681;28;20434;-64
2022/03/24 17:21:48;;;;;;;;;;;18.50;36.20;;;;;;5016646;28;19972;-64
2022/03/24 17:24:14;;;;;;;;;;;18.40;37.10;;;;;;5016183;28;19926;-66
2022/03/24 17:26:42;;;;;;;;;;;18.30;37.60;;;;;;5016353;28;20021;-66
2022/03/24 17:29:10;;;;;;;;;;;18.20;38.60;;;;;;5015854;28;20346;-65
2022/03/24 17:31:37;;;;;;;;;;;18.10;38.90;;;;;;5016230;28;20008;-65
2022/03/24 17:34:03;;;;;;;;;;;18.00;39.10;;;;;;5016130;28;20020;-65
2022/03/24 17:36:31;;;;;;;;;;;17.90;39.40;;;;;;5016017;28;19921;-66
2022/03/24 17:38:57;;;;;;;;;;;17.80;40.60;;;;;;5015697;28;19925;-66
2022/03/24 17:41:24;;;;;;;;;;;17.70;40.30;;;;;;5015637;28;19922;-65
2022/03/24 17:43:52;;;;;;;;;;;17.60;40.80;;;;;;5016239;28;19921;-64
2022/03/24 17:46:19;;;;;;;;;;;17.40;40.00;;;;;;5015712;28;19928;-64
2022/03/24 17:48:46;;;;;;;;;;;17.30;41.20;;;;;;5015450;28;19922;-65
2022/03/24 17:51:13;;;;;;;;;;;17.20;41.10;;;;;;5015484;28;19928;-64
2022/03/24 17:53:39;;;;;;;;;;;17.10;41.80;;;;;;5015651;28;20007;-64
2022/03/24 17:56:06;;;;;;;;;;;17.00;42.30;;;;;;5014204;28;19921;-65
2022/03/24 17:58:32;;;;;;;;;;;16.90;42.80;;;;;;5015468;28;19921;-64
2022/03/24 18:01:00;;;;;;;;;;;16.80;42.70;;;;;;5015166;28;19926;-66
2022/03/24 18:03:27;;;;;;;;;;;16.70;43.20;;;;;;5015453;28;19928;-65
2022/03/24 18:05:53;;;;;;;;;;;16.50;43.20;;;;;;5015520;28;19922;-63
2022/03/24 18:08:20;;;;;;;;;;;16.40;43.50;;;;;;5015255;28;19928;-64
2022/03/24 18:10:46;;;;;;;;;;;16.30;45.60;;;;;;5014813;28;20307;-64
2022/03/24 18:13:13;;;;;;;;;;;16.20;44.20;;;;;;5015105;28;19921;-64
2022/03/24 18:15:40;;;;;;;;;;;16.10;44.60;;;;;;5014803;28;20403;-64
2022/03/24 18:18:08;;;;;;;;;;;16.00;45.10;;;;;;5015271;28;19968;-65
2022/03/24 18:20:35;;;;;;;;;;;15.80;44.80;;;;;;5015047;28;19921;-64
2022/03/24 18:23:02;;;;;;;;;;;15.70;44.90;;;;;;5014644;28;19953;-63
2022/03/24 18:25:29;;;;;;;;;;;15.60;45.00;;;;;;5014609;28;19925;-63
2022/03/24 18:27:55;;;;;;;;;;;15.50;45.90;;;;;;5014824;28;19925;-63
2022/03/24 18:30:22;;;;;;;;;;;15.40;46.00;;;;;;5014667;28;19927;-65
2022/03/24 18:32:49;;;;;;;;;;;15.20;45.70;;;;;;5015124;28;19956;-65
2022/03/24 18:35:16;;;;;;;;;;;15.10;45.90;;;;;;5015075;28;19921;-63
2022/03/24 18:37:43;;;;;;;;;;;15.00;45.30;;;;;;5014941;28;19921;-63
2022/03/24 18:40:11;;;;;;;;;;;14.90;45.30;;;;;;5014853;28;19983;-64
2022/03/24 18:42:37;;;;;;;;;;;14.80;45.30;;;;;;5014899;28;19921;-65
2022/03/24 18:45:04;;;;;;;;;;;14.70;45.50;;;;;;5014971;28;19921;-64
2022/03/24 18:47:31;;;;;;;;;;;14.60;45.50;;;;;;5014967;28;19921;-63
2022/03/24 18:49:57;;;;;;;;;;;14.60;46.10;;;;;;5014893;28;19928;-65
2022/03/24 18:52:26;;;;;;;;;;;14.50;46.20;;;;;;5014658;28;19921;-64
2022/03/24 18:54:53;;;;;;;;;;;14.50;46.30;;;;;;5014666;28;19929;-63
2022/03/24 18:57:19;;;;;;;;;;;14.40;46.20;;;;;;5014857;28;19980;-65
2022/03/24 18:59:46;;;;;;;;;;;14.40;46.40;;;;;;5015308;28;19921;-64
2022/03/24 19:02:12;;;;;;;;;;;14.40;46.30;;;;;;5017106;28;20327;-64
2022/03/24 19:04:39;;;;;;;;;;;14.30;45.90;;;;;;5017299;28;20369;-64
2022/03/24 19:07:06;;;;;;;;;;;14.30;45.00;;;;;;5015629;28;19925;-64